Time;durP1;ratioP1;P1;durP2;ratioP2;P2;SDS_P1;SDS_P2;PMS_P1;PMS_P2;Temp;Humidity;BMP_temperature;BMP_pressure;BME280_temperature;BME280_humidity;BME280_pressure;Samples;Min_cycle;Max_cycle;Signal;HPM_P1;HPM_P2
2022/07/21 00:01:50;;;;;;;7.37;6.70;;;30.20;60.80;;;;;;6169443;23;20859;-77
2022/07/21 00:04:17;;;;;;;7.30;6.70;;;30.20;60.90;;;;;;6152195;23;20365;-78
2022/07/21 00:06:46;;;;;;;7.13;6.43;;;30.10;60.90;;;;;;6144545;23;20735;-77
2022/07/21 00:09:15;;;;;;;6.97;6.30;;;30.10;61.00;;;;;;6177012;23;20382;-77
2022/07/21 00:11:41;;;;;;;7.60;6.20;;;30.10;61.10;;;;;;6153733;23;20903;-77
2022/07/21 00:14:14;;;;;;;6.60;6.10;;;30.10;61.10;;;;;;6153686;23;20380;-77
2022/07/21 00:16:43;;;;;;;6.30;5.70;;;30.10;61.10;;;;;;6143291;23;20380;-77
2022/07/21 00:19:10;;;;;;;7.50;6.43;;;30.10;61.20;;;;;;6153767;23;20404;-77
2022/07/21 00:21:42;;;;;;;7.20;6.57;;;30.00;61.20;;;;;;6166936;23;20381;-77
2022/07/21 00:24:13;;;;;;;7.60;6.77;;;30.00;61.20;;;;;;6152023;23;20361;-77
2022/07/21 00:26:45;;;;;;;6.60;6.00;;;30.00;61.20;;;;;;6143388;23;20404;-77
2022/07/21 00:29:11;;;;;;;7.17;6.57;;;29.90;61.20;;;;;;6151761;23;20480;-77
2022/07/21 00:31:39;;;;;;;7.43;6.77;;;30.00;61.30;;;;;;6142372;23;20432;-78
2022/07/21 00:34:08;;;;;;;9.47;7.00;;;29.90;61.20;;;;;;6152259;23;20397;-77
2022/07/21 00:36:34;;;;;;;7.00;6.30;;;29.90;61.30;;;;;;6166180;23;20465;-77
2022/07/21 00:39:08;;;;;;;6.23;5.73;;;29.90;61.40;;;;;;6153051;23;20401;-77
2022/07/21 00:41:35;;;;;;;5.80;5.30;;;29.80;61.40;;;;;;6153222;23;20444;-77
2022/07/21 00:44:01;;;;;;;6.53;5.93;;;29.80;61.50;;;;;;6171568;23;20451;-77
2022/07/21 00:46:30;;;;;;;6.60;6.00;;;29.80;61.60;;;;;;6165418;23;20369;-77
2022/07/21 00:48:56;;;;;;;6.30;5.80;;;29.80;62.50;;;;;;6127406;23;20853;-77
2022/07/21 00:51:24;;;;;;;7.03;6.43;;;29.80;61.60;;;;;;6151861;23;20447;-77
2022/07/21 00:53:53;;;;;;;6.80;6.20;;;29.70;61.60;;;;;;6120632;23;20424;-78
2022/07/21 00:56:25;;;;;;;6.73;6.17;;;29.70;61.60;;;;;;6102918;23;20789;-77
2022/07/21 00:58:51;;;;;;;7.30;6.60;;;29.70;61.80;;;;;;6169770;23;20412;-77
2022/07/21 01:01:19;;;;;;;6.10;5.57;;;29.70;61.90;;;;;;6152845;23;20435;-77
2022/07/21 01:03:49;;;;;;;6.57;5.97;;;29.70;61.90;;;;;;6144223;23;20373;-77
2022/07/21 01:06:17;;;;;;;6.03;5.20;;;29.70;61.90;;;;;;6151996;23;20357;-77
2022/07/21 01:08:45;;;;;;;7.07;6.50;;;29.60;61.80;;;;;;6168463;23;20396;-77
2022/07/21 01:11:14;;;;;;;7.10;6.50;;;29.60;61.90;;;;;;6151725;23;20409;-77
2022/07/21 01:13:41;;;;;;;6.83;6.23;;;29.60;62.00;;;;;;6153128;23;20747;-77
2022/07/21 01:16:12;;;;;;;6.30;5.70;;;29.60;62.20;;;;;;6172759;23;20864;-77
2022/07/21 01:18:41;;;;;;;6.67;6.07;;;29.60;62.20;;;;;;6153292;23;20488;-78
2022/07/21 01:21:27;;;;;;;6.60;6.00;;;29.60;62.20;;;;;;6124136;23;20437;-77
2022/07/21 01:23:55;;;;;;;6.43;5.87;;;29.50;62.30;;;;;;6170306;23;20904;-78
2022/07/21 01:26:21;;;;;;;6.50;6.00;;;29.50;62.30;;;;;;6152142;23;20448;-77
2022/07/21 01:28:49;;;;;;;6.27;5.77;;;29.50;62.40;;;;;;6151852;23;20448;-77
2022/07/21 01:31:15;;;;;;;6.73;6.07;;;29.40;62.30;;;;;;6153233;23;20439;-78
2022/07/21 01:33:46;;;;;;;6.10;5.60;;;29.50;62.40;;;;;;6167700;23;20385;-77
2022/07/21 01:36:15;;;;;;;6.57;5.97;;;29.40;62.40;;;;;;6151836;23;20418;-77
2022/07/21 01:41:32;;;;;;;7.80;6.63;;;29.40;62.70;;;;;;6176453;23;20436;-77
2022/07/21 01:44:08;;;;;;;6.67;6.17;;;29.40;62.70;;;;;;6126847;23;20428;-77
2022/07/21 01:46:40;;;;;;;7.90;6.60;;;29.30;62.60;;;;;;6117071;23;20429;-77
2022/07/21 01:49:07;;;;;;;7.10;6.60;;;29.30;62.70;;;;;;6129514;23;20464;-74
2022/07/21 01:51:36;;;;;;;5.43;4.93;;;29.30;62.70;;;;;;6182410;23;20538;-75
2022/07/21 01:54:06;;;;;;;6.60;6.07;;;29.30;62.80;;;;;;6181694;23;20360;-75
2022/07/21 01:56:36;;;;;;;7.43;6.70;;;29.30;62.90;;;;;;6183839;23;20503;-75
2022/07/21 01:59:06;;;;;;;8.23;6.03;;;29.30;62.90;;;;;;6214916;23;20425;-75
2022/07/21 02:01:32;;;;;;;6.70;6.10;;;29.20;62.90;;;;;;6188491;23;20403;-75
2022/07/21 02:04:07;;;;;;;6.53;5.93;;;29.20;63.00;;;;;;6213471;23;20402;-75
2022/07/21 02:06:33;;;;;;;7.47;6.43;;;29.20;63.00;;;;;;6163712;23;20394;-75
2022/07/21 02:09:00;;;;;;;7.03;6.40;;;29.20;63.10;;;;;;6214826;23;20356;-74
2022/07/21 02:11:29;;;;;;;6.47;5.97;;;29.20;63.20;;;;;;6163488;23;20757;-74
2022/07/21 02:13:55;;;;;;;6.77;6.17;;;29.10;63.30;;;;;;6214736;23;20391;-75
2022/07/21 02:16:21;;;;;;;7.13;6.53;;;29.10;63.30;;;;;;6214948;23;20368;-74
2022/07/21 02:18:50;;;;;;;6.53;5.87;;;29.10;63.40;;;;;;6188683;23;20368;-75
2022/07/21 02:21:16;;;;;;;6.20;5.70;;;29.10;63.40;;;;;;6188067;23;20510;-75
2022/07/21 02:23:42;;;;;;;6.30;5.80;;;29.00;63.40;;;;;;6188389;23;20407;-75
2022/07/21 02:26:10;;;;;;;6.70;6.00;;;29.00;63.50;;;;;;6188358;23;20391;-75
2022/07/21 02:28:41;;;;;;;6.40;5.90;;;29.00;63.50;;;;;;6188555;23;20754;-75
2022/07/21 02:31:09;;;;;;;6.03;5.53;;;29.00;63.60;;;;;;6163204;23;20399;-75
2022/07/21 02:33:38;;;;;;;6.63;6.03;;;29.00;63.80;;;;;;6213152;23;20395;-75
2022/07/21 02:36:07;;;;;;;6.10;5.60;;;29.00;63.80;;;;;;6164040;23;20383;-75
2022/07/21 02:38:33;;;;;;;6.30;5.70;;;28.90;63.80;;;;;;6214802;23;20676;-75
2022/07/21 02:41:02;;;;;;;6.47;5.83;;;28.90;63.80;;;;;;6163456;23;20430;-75
2022/07/21 02:43:28;;;;;;;6.07;5.57;;;28.90;63.80;;;;;;6163214;23;20490;-75
2022/07/21 02:45:57;;;;;;;6.23;5.70;;;28.90;64.00;;;;;;6211824;23;20399;-75
2022/07/21 02:48:23;;;;;;;6.53;5.93;;;28.90;64.10;;;;;;6187871;23;20754;-75
2022/07/21 02:50:51;;;;;;;6.10;5.60;;;28.90;64.10;;;;;;6213897;23;20448;-75
2022/07/21 02:53:23;;;;;;;5.73;5.23;;;28.90;64.10;;;;;;6162532;23;20882;-75
2022/07/21 02:55:52;;;;;;;6.73;6.13;;;28.80;64.10;;;;;;6214469;23;20363;-75
2022/07/21 02:58:27;;;;;;;6.30;5.80;;;28.80;64.20;;;;;;6187810;23;20419;-75
2022/07/21 03:01:06;;;;;;;6.70;5.83;;;28.80;64.30;;;;;;6184671;23;20435;-75
2022/07/21 03:03:36;;;;;;;7.20;6.50;;;28.80;64.40;;;;;;6187804;23;20839;-75
2022/07/21 03:06:06;;;;;;;6.50;6.00;;;28.80;64.40;;;;;;6213960;23;20360;-75
2022/07/21 03:08:36;;;;;;;6.13;5.63;;;28.70;65.10;;;;;;6162853;23;20482;-74
2022/07/21 03:11:03;;;;;;;6.03;5.53;;;28.70;64.40;;;;;;6162808;23;20411;-74
2022/07/21 03:13:29;;;;;;;5.70;5.20;;;28.70;64.50;;;;;;6187676;23;20399;-74
2022/07/21 03:15:55;;;;;;;5.70;5.20;;;28.70;64.60;;;;;;6187987;23;20368;-75
2022/07/21 03:18:28;;;;;;;5.07;4.67;;;28.70;64.60;;;;;;6138575;23;20910;-75
2022/07/21 03:20:54;;;;;;;5.90;5.40;;;28.70;64.60;;;;;;6187611;23;20423;-75
2022/07/21 03:23:20;;;;;;;5.57;5.03;;;28.60;64.70;;;;;;6187702;23;20383;-75
2022/07/21 03:25:46;;;;;;;5.50;5.03;;;28.60;64.80;;;;;;6214639;23;20371;-75
2022/07/21 03:28:14;;;;;;;6.33;5.77;;;28.60;64.90;;;;;;6187463;23;20391;-75
2022/07/21 03:30:40;;;;;;;7.57;5.10;;;28.50;64.80;;;;;;6214138;23;20518;-75
2022/07/21 03:33:06;;;;;;;5.63;5.13;;;28.60;64.90;;;;;;6187786;23;20368;-75
2022/07/21 03:35:37;;;;;;;5.97;5.23;;;28.50;65.00;;;;;;6187620;23;20453;-75
2022/07/21 03:38:05;;;;;;;6.33;5.83;;;28.50;65.00;;;;;;6212352;23;20728;-75
2022/07/21 03:40:33;;;;;;;5.73;5.23;;;28.50;65.00;;;;;;6162730;23;20836;-75
2022/07/21 03:43:05;;;;;;;5.23;4.73;;;28.50;65.20;;;;;;6188067;23;20372;-75
2022/07/21 03:45:35;;;;;;;5.53;5.03;;;28.50;65.20;;;;;;6163121;23;20486;-75
2022/07/21 03:48:06;;;;;;;5.27;4.77;;;28.50;65.50;;;;;;6162646;23;20728;-75
2022/07/21 03:50:37;;;;;;;6.10;5.50;;;28.40;65.10;;;;;;6162216;23;20442;-75
2022/07/21 03:53:08;;;;;;;6.00;5.40;;;28.40;65.00;;;;;;6187585;23;20702;-75
2022/07/21 03:55:37;;;;;;;5.07;4.67;;;28.40;65.30;;;;;;6187265;23;20873;-75
2022/07/21 03:58:05;;;;;;;5.40;5.00;;;28.40;65.50;;;;;;6213871;23;20430;-75
2022/07/21 04:00:40;;;;;;;5.40;5.00;;;28.40;65.50;;;;;;6163451;23;20571;-74
2022/07/21 04:03:06;;;;;;;5.70;5.20;;;28.30;65.70;;;;;;6162726;23;20415;-74
2022/07/21 04:05:33;;;;;;;5.30;4.87;;;28.30;65.70;;;;;;6187732;23;20937;-73
2022/07/21 04:08:02;;;;;;;5.30;4.90;;;28.30;65.80;;;;;;6212308;23;20423;-75
2022/07/21 04:10:30;;;;;;;5.80;5.03;;;28.30;66.00;;;;;;6187664;23;20410;-75
2022/07/21 04:12:59;;;;;;;6.43;5.67;;;28.30;66.10;;;;;;6212275;23;20466;-74
2022/07/21 04:15:25;;;;;;;5.30;4.90;;;28.20;65.90;;;;;;6187478;23;20371;-73
2022/07/21 04:17:54;;;;;;;5.40;5.00;;;28.20;65.90;;;;;;6187459;23;20418;-74
2022/07/21 04:20:20;;;;;;;5.40;4.90;;;28.20;65.90;;;;;;6213607;23;20422;-74
2022/07/21 04:22:50;;;;;;;6.03;5.60;;;28.20;65.90;;;;;;6187270;23;20386;-74
2022/07/21 04:25:20;;;;;;;5.77;5.17;;;28.10;66.00;;;;;;6163420;23;20387;-74
2022/07/21 04:28:16;;;;;;;6.20;5.70;;;28.10;66.10;;;;;;6156418;23;20384;-73
2022/07/21 04:30:42;;;;;;;6.07;5.57;;;28.10;66.30;;;;;;6187215;23;20395;-73
2022/07/21 04:33:08;;;;;;;7.93;5.87;;;28.10;66.10;;;;;;6162206;23;20399;-73
2022/07/21 04:35:35;;;;;;;6.20;5.60;;;28.10;66.10;;;;;;6187240;23;20494;-73
2022/07/21 04:38:01;;;;;;;6.40;5.77;;;28.00;66.10;;;;;;6211237;23;20422;-73
2022/07/21 04:40:27;;;;;;;5.83;5.40;;;28.00;66.10;;;;;;6186484;23;20776;-74
2022/07/21 04:42:53;;;;;;;6.00;5.50;;;28.00;66.30;;;;;;6187174;23;20368;-74
2022/07/21 04:45:20;;;;;;;5.60;5.10;;;28.00;66.10;;;;;;6185917;23;20534;-74
2022/07/21 04:47:54;;;;;;;5.90;5.40;;;28.00;66.40;;;;;;6211404;23;20462;-73
2022/07/21 04:50:24;;;;;;;6.07;5.33;;;28.00;66.70;;;;;;6213138;23;20410;-73
2022/07/21 04:52:50;;;;;;;8.03;6.30;;;27.90;66.50;;;;;;6186885;23;20379;-73
2022/07/21 04:55:20;;;;;;;5.63;5.13;;;27.90;66.50;;;;;;6213876;23;20851;-73
2022/07/21 04:57:48;;;;;;;5.60;5.20;;;27.90;66.40;;;;;;6186789;23;20404;-74
2022/07/21 05:00:17;;;;;;;6.00;5.50;;;27.90;66.60;;;;;;6211450;23;20480;-74
2022/07/21 05:02:46;;;;;;;6.57;5.97;;;27.90;67.10;;;;;;6162014;23;20390;-74
2022/07/21 05:05:13;;;;;;;5.63;5.23;;;27.90;67.40;;;;;;6162083;23;20967;-73
2022/07/21 05:07:39;;;;;;;6.43;5.83;;;27.90;67.20;;;;;;6186779;23;20400;-73
2022/07/21 05:10:12;;;;;;;6.20;5.60;;;27.90;67.20;;;;;;6186863;23;20410;-73
2022/07/21 05:12:39;;;;;;;6.27;5.77;;;27.90;67.10;;;;;;6186901;23;20371;-73
2022/07/21 05:15:12;;;;;;;6.83;6.03;;;27.80;67.40;;;;;;6213551;23;20688;-73
2022/07/21 05:17:39;;;;;;;6.17;5.57;;;27.80;67.70;;;;;;6161616;23;20419;-73
2022/07/21 05:20:08;;;;;;;6.33;5.77;;;27.80;67.80;;;;;;6186631;23;20996;-73
2022/07/21 05:22:35;;;;;;;7.33;6.73;;;27.70;67.70;;;;;;6186895;23;20839;-73
2022/07/21 05:25:04;;;;;;;6.53;6.03;;;27.80;68.80;;;;;;6161974;23;20886;-74
2022/07/21 05:27:33;;;;;;;7.03;6.37;;;27.80;68.20;;;;;;6213350;23;20458;-74
2022/07/21 05:29:59;;;;;;;6.30;5.80;;;27.70;67.90;;;;;;6213607;23;21049;-74
2022/07/21 05:32:27;;;;;;;6.47;5.97;;;27.70;67.90;;;;;;6163686;23;20724;-74
2022/07/21 05:34:55;;;;;;;6.10;5.60;;;27.70;68.00;;;;;;6163847;23;20391;-74
2022/07/21 05:37:24;;;;;;;7.03;5.57;;;27.60;67.90;;;;;;6213610;23;20411;-74
2022/07/21 05:39:49;;;;;;;6.37;5.87;;;27.60;67.90;;;;;;6215110;23;20768;-74
2022/07/21 05:42:16;;;;;;;6.73;6.13;;;27.60;67.80;;;;;;6163901;23;20387;-74
2022/07/21 05:44:46;;;;;;;5.80;5.30;;;27.60;67.80;;;;;;6164240;23;20746;-73
2022/07/21 05:47:12;;;;;;;6.70;6.00;;;27.60;67.90;;;;;;6189362;23;20395;-74
2022/07/21 05:49:38;;;;;;;8.50;6.50;;;27.60;68.20;;;;;;6188978;23;20462;-74
2022/07/21 05:52:07;;;;;;;5.93;5.50;;;27.60;68.30;;;;;;6189091;23;20448;-74
2022/07/21 05:54:37;;;;;;;6.20;5.20;;;27.60;68.20;;;;;;6215744;23;20144;-74
2022/07/21 05:57:06;;;;;;;6.70;6.20;;;27.50;68.30;;;;;;6164027;23;20415;-74
2022/07/21 05:59:32;;;;;;;6.73;6.17;;;27.50;68.60;;;;;;6210345;23;20367;-74
2022/07/21 06:01:59;;;;;;;6.50;5.87;;;27.50;68.80;;;;;;6188090;23;20387;-74
2022/07/21 06:04:25;;;;;;;6.17;5.67;;;27.50;68.90;;;;;;6188396;23;20793;-74
2022/07/21 06:06:52;;;;;;;7.27;6.57;;;27.40;69.10;;;;;;6211409;23;20403;-73
2022/07/21 06:09:19;;;;;;;6.43;5.83;;;27.40;69.20;;;;;;6212056;23;20431;-72
2022/07/21 06:11:45;;;;;;;6.90;6.30;;;27.40;68.80;;;;;;6188328;23;20397;-72
2022/07/21 06:14:11;;;;;;;6.67;6.17;;;27.40;68.80;;;;;;6215154;23;20360;-72
2022/07/21 06:16:38;;;;;;;6.23;5.70;;;27.40;68.80;;;;;;6163727;23;20415;-72
2022/07/21 06:19:07;;;;;;;6.90;6.30;;;27.40;69.40;;;;;;6214975;23;20403;-72
2022/07/21 06:21:34;;;;;;;7.30;6.03;;;27.30;69.20;;;;;;6215108;23;20423;-72
2022/07/21 06:24:01;;;;;;;6.67;5.50;;;27.30;69.00;;;;;;6188204;23;20403;-73
2022/07/21 06:26:27;;;;;;;5.70;5.20;;;27.30;68.90;;;;;;6163552;23;20391;-72
2022/07/21 06:28:54;;;;;;;6.20;5.60;;;27.30;68.90;;;;;;6214928;23;20391;-72
2022/07/21 06:31:22;;;;;;;7.43;6.17;;;27.30;68.80;;;;;;6188421;23;20414;-72
2022/07/21 06:33:48;;;;;;;10.70;6.90;;;27.30;68.90;;;;;;6215211;23;20364;-72
2022/07/21 06:36:19;;;;;;;7.60;5.70;;;27.30;69.20;;;;;;6214548;23;20384;-72
2022/07/21 06:38:49;;;;;;;9.80;6.60;;;27.30;69.60;;;;;;6188162;23;20739;-72
2022/07/21 06:41:16;;;;;;;6.47;5.80;;;27.30;69.90;;;;;;6214951;23;20879;-72
2022/07/21 06:43:42;;;;;;;8.23;6.23;;;27.30;69.90;;;;;;6163399;23;20380;-72
2022/07/21 06:46:08;;;;;;;6.33;5.83;;;27.20;69.90;;;;;;6215126;23;20455;-72
2022/07/21 06:48:34;;;;;;;7.70;6.37;;;27.20;69.70;;;;;;6188518;23;20831;-72
2022/07/21 06:51:00;;;;;;;6.17;5.57;;;27.20;70.00;;;;;;6163301;23;20430;-73
2022/07/21 06:53:31;;;;;;;6.60;5.90;;;27.20;70.00;;;;;;6188269;23;20360;-73
2022/07/21 06:56:00;;;;;;;6.60;5.73;;;27.20;69.60;;;;;;6215025;23;20382;-72
2022/07/21 06:58:27;;;;;;;6.97;6.23;;;27.10;69.40;;;;;;6187976;23;20411;-72
2022/07/21 07:00:53;;;;;;;6.63;5.60;;;27.10;69.40;;;;;;6214822;23;20479;-72
2022/07/21 07:03:24;;;;;;;5.90;5.40;;;27.10;70.60;;;;;;6213169;23;20380;-72
2022/07/21 07:05:52;;;;;;;6.57;5.93;;;27.10;70.10;;;;;;6188099;23;20394;-73
2022/07/21 07:08:18;;;;;;;6.27;5.77;;;27.10;70.10;;;;;;6188049;23;20375;-73
2022/07/21 07:10:47;;;;;;;5.87;5.37;;;27.00;70.00;;;;;;6214725;23;20395;-72
2022/07/21 07:13:17;;;;;;;6.77;6.17;;;27.00;69.80;;;;;;6188161;23;20407;-72
2022/07/21 07:15:46;;;;;;;5.73;5.23;;;27.00;69.80;;;;;;6187757;23;20366;-73
2022/07/21 07:18:12;;;;;;;7.33;5.40;;;27.00;70.50;;;;;;6212332;23;20379;-73
2022/07/21 07:20:37;;;;;;;6.37;5.77;;;27.00;70.20;;;;;;6162887;23;20439;-73
2022/07/21 07:23:06;;;;;;;7.53;6.40;;;27.00;70.10;;;;;;6213177;23;20391;-73
2022/07/21 07:25:32;;;;;;;6.73;6.03;;;27.00;70.10;;;;;;6188116;23;20136;-73
2022/07/21 07:27:59;;;;;;;5.77;5.17;;;27.00;70.30;;;;;;6163080;23;20410;-73
2022/07/21 07:30:25;;;;;;;6.57;5.40;;;27.00;70.30;;;;;;6188384;23;20814;-73
2022/07/21 07:32:51;;;;;;;6.60;6.00;;;26.90;70.00;;;;;;6163085;23;20787;-73
2022/07/21 07:35:19;;;;;;;6.80;6.20;;;26.90;69.80;;;;;;6187756;23;20399;-73
2022/07/21 07:37:48;;;;;;;6.60;5.90;;;26.90;69.90;;;;;;6213936;23;20819;-73
2022/07/21 07:40:19;;;;;;;6.43;5.20;;;26.90;70.10;;;;;;6214291;23;20488;-73
2022/07/21 07:42:49;;;;;;;5.80;5.30;;;26.90;69.90;;;;;;6212801;23;20371;-73
2022/07/21 07:45:15;;;;;;;5.87;5.37;;;26.90;69.90;;;;;;6185693;23;20407;-73
2022/07/21 07:47:42;;;;;;;5.20;4.83;;;26.90;69.80;;;;;;6212416;23;20480;-73
2022/07/21 07:50:13;;;;;;;5.80;5.30;;;26.90;69.90;;;;;;6187749;23;20514;-73
2022/07/21 07:52:41;;;;;;;6.27;5.67;;;26.90;69.70;;;;;;6213958;23;20413;-73
2022/07/21 07:55:10;;;;;;;6.20;5.63;;;26.90;69.70;;;;;;6187926;23;20374;-73
2022/07/21 07:57:40;;;;;;;5.97;5.40;;;26.90;69.90;;;;;;6214176;23;20678;-73
2022/07/21 08:00:10;;;;;;;5.83;5.33;;;26.90;69.80;;;;;;6187842;23;20446;-73
2022/07/21 08:02:39;;;;;;;6.07;5.53;;;26.80;70.10;;;;;;6163104;23;20395;-73
2022/07/21 08:05:11;;;;;;;5.47;4.97;;;26.80;70.10;;;;;;6214121;23;20727;-73
2022/07/21 08:07:39;;;;;;;6.10;5.50;;;26.80;70.20;;;;;;6187568;23;20422;-73
2022/07/21 08:10:07;;;;;;;6.57;5.93;;;26.80;70.20;;;;;;6187740;23;20485;-73
2022/07/21 08:12:34;;;;;;;6.13;5.53;;;26.80;70.00;;;;;;6162876;23;20414;-73
2022/07/21 08:15:03;;;;;;;6.20;5.70;;;26.80;69.60;;;;;;6212639;23;20421;-73
2022/07/21 08:17:34;;;;;;;5.70;5.20;;;26.80;69.60;;;;;;6188071;23;20359;-73
2022/07/21 08:20:01;;;;;;;5.57;4.97;;;26.80;69.40;;;;;;6162935;23;20525;-73
2022/07/21 08:22:29;;;;;;;5.40;4.93;;;26.80;69.60;;;;;;6187615;23;20397;-73
2022/07/21 08:24:57;;;;;;;5.43;5.00;;;26.80;69.70;;;;;;6162703;23;20742;-73
2022/07/21 08:27:25;;;;;;;6.10;5.50;;;26.80;69.70;;;;;;6212942;23;20399;-75
2022/07/21 08:29:54;;;;;;;7.43;5.70;;;26.70;69.40;;;;;;6214168;23;20817;-72
2022/07/21 08:32:21;;;;;;;6.00;5.00;;;26.70;69.60;;;;;;6162853;23;20800;-73
2022/07/21 08:34:49;;;;;;;6.77;5.00;;;26.70;69.40;;;;;;6138272;23;20406;-74
2022/07/21 08:37:19;;;;;;;5.50;5.00;;;26.70;69.10;;;;;;6187940;23;20426;-74
2022/07/21 08:39:47;;;;;;;6.93;6.33;;;26.70;69.10;;;;;;6162240;23;20767;-73
2022/07/21 08:42:14;;;;;;;6.20;5.10;;;26.70;69.20;;;;;;6213762;23;20402;-73
2022/07/21 08:44:43;;;;;;;5.90;5.23;;;26.70;69.30;;;;;;6163076;23;20379;-73
2022/07/21 08:47:11;;;;;;;6.40;5.90;;;26.70;69.00;;;;;;6187524;23;20858;-73
2022/07/21 08:49:41;;;;;;;5.73;5.23;;;26.70;68.80;;;;;;6213780;23;20410;-73
2022/07/21 08:52:09;;;;;;;5.97;5.37;;;26.70;69.10;;;;;;6162076;23;20399;-73
2022/07/21 08:54:40;;;;;;;6.63;5.00;;;26.70;69.00;;;;;;6213819;23;20375;-73
2022/07/21 08:57:12;;;;;;;6.57;5.97;;;26.70;68.90;;;;;;6187519;23;20508;-73
2022/07/21 08:59:43;;;;;;;7.60;5.90;;;26.70;69.00;;;;;;6212004;23;20417;-73
2022/07/21 09:02:33;;;;;;;7.37;5.70;;;26.70;69.20;;;;;;6187294;23;20386;-73
2022/07/21 09:05:00;;;;;;;7.43;6.07;;;26.70;69.20;;;;;;6164374;23;20360;-73
2022/07/21 09:07:29;;;;;;;6.40;5.77;;;26.60;68.80;;;;;;6163969;23;21024;-73
2022/07/21 09:09:59;;;;;;;7.90;6.30;;;26.70;68.80;;;;;;6214357;23;20476;-73
2022/07/21 09:12:29;;;;;;;7.27;5.70;;;26.70;68.80;;;;;;6164574;23;21048;-73
2022/07/21 09:15:15;;;;;;;7.40;6.40;;;26.60;68.50;;;;;;6215878;23;20375;-73
2022/07/21 09:17:45;;;;;;;7.07;6.37;;;26.60;68.50;;;;;;6215787;23;20398;-73
2022/07/21 09:20:35;;;;;;;6.17;5.67;;;26.70;68.60;;;;;;6164435;23;20458;-73
2022/07/21 09:23:27;;;;;;;6.90;6.30;;;26.70;68.70;;;;;;6167030;23;20699;-73
2022/07/21 09:25:59;;;;;;;6.83;6.07;;;26.60;68.80;;;;;;6164599;23;20356;-73
2022/07/21 09:28:30;;;;;;;6.87;6.27;;;26.60;68.80;;;;;;6189311;23;20382;-73
2022/07/21 09:31:00;;;;;;;7.07;6.37;;;26.60;68.70;;;;;;6188988;23;20399;-73
2022/07/21 09:33:42;;;;;;;7.10;6.50;;;26.60;68.60;;;;;;6215861;23;20842;-73
2022/07/21 09:36:16;;;;;;;7.17;6.47;;;26.60;68.80;;;;;;6188768;23;20489;-73
2022/07/21 09:38:58;;;;;;;7.50;6.70;;;26.60;68.80;;;;;;6213627;23;20401;-73
2022/07/21 09:41:26;;;;;;;8.20;6.33;;;26.60;68.80;;;;;;6213773;23;20434;-73
2022/07/21 09:43:55;;;;;;;7.07;6.47;;;26.60;68.80;;;;;;6163922;23;20851;-73
2022/07/21 09:46:29;;;;;;;7.13;6.43;;;26.60;68.70;;;;;;6214779;23;20411;-73
2022/07/21 09:49:02;;;;;;;6.57;5.97;;;26.60;68.80;;;;;;6188218;23;20399;-73
2022/07/21 09:51:34;;;;;;;8.10;7.30;;;26.60;68.70;;;;;;6164098;23;20712;-73
2022/07/21 09:54:07;;;;;;;8.10;6.90;;;26.60;68.60;;;;;;6163871;23;20434;-73
2022/07/21 09:56:36;;;;;;;6.53;5.93;;;26.60;68.70;;;;;;6188835;23;20426;-73
2022/07/21 09:59:07;;;;;;;7.73;7.13;;;26.60;68.30;;;;;;6206198;22;20994;-74
2022/07/21 10:01:35;;;;;;;10.60;7.27;;;26.60;68.30;;;;;;6184906;23;20500;-74
2022/07/21 10:04:04;;;;;;;11.23;6.90;;;26.60;68.30;;;;;;6215404;23;20826;-74
2022/07/21 10:06:37;;;;;;;7.07;6.37;;;26.60;68.50;;;;;;6165124;23;20534;-75
2022/07/21 10:09:08;;;;;;;9.10;6.93;;;26.60;68.40;;;;;;6212374;23;20411;-75
2022/07/21 10:11:34;;;;;;;8.70;6.60;;;26.60;68.40;;;;;;6163774;23;20494;-75
2022/07/21 10:14:03;;;;;;;8.63;7.00;;;26.60;68.40;;;;;;6188658;23;20407;-76
2022/07/21 10:16:33;;;;;;;7.30;6.70;;;26.60;68.50;;;;;;6164163;23;20387;-75
2022/07/21 10:19:23;;;;;;;7.33;6.53;;;26.60;68.70;;;;;;6164084;23;20609;-74
2022/07/21 10:22:09;;;;;;;7.13;6.20;;;26.50;68.50;;;;;;6215746;23;20403;-74
2022/07/21 10:24:38;;;;;;;6.40;5.90;;;26.60;68.60;;;;;;6215042;23;20367;-74
2022/07/21 10:27:10;;;;;;;6.97;6.30;;;26.50;68.40;;;;;;6213675;23;20711;-74
2022/07/21 10:29:56;;;;;;;7.30;6.60;;;26.50;68.20;;;;;;6188658;23;20471;-75
2022/07/21 10:32:34;;;;;;;9.07;6.67;;;26.50;68.00;;;;;;6164439;23;20367;-72
2022/07/21 10:35:26;;;;;;;7.10;6.60;;;26.50;68.00;;;;;;6189155;23;20366;-75
2022/07/21 10:37:52;;;;;;;7.90;6.87;;;26.50;68.20;;;;;;6189537;23;20700;-75
2022/07/21 10:40:19;;;;;;;8.20;7.40;;;26.50;68.10;;;;;;6163995;23;20537;-76
2022/07/21 10:43:05;;;;;;;7.83;7.03;;;26.50;68.20;;;;;;6216004;23;20379;-76
2022/07/21 10:45:40;;;;;;;7.43;6.73;;;26.50;68.50;;;;;;6140710;23;20401;-76
2022/07/21 10:48:08;;;;;;;6.97;6.27;;;26.50;69.20;;;;;;6215792;23;20378;-75
2022/07/21 10:50:39;;;;;;;7.63;6.93;;;26.50;69.20;;;;;;6215401;23;20398;-78
2022/07/21 10:53:17;;;;;;;7.70;7.00;;;26.50;70.00;;;;;;6213608;23;20796;-74
2022/07/21 10:55:51;;;;;;;6.30;5.80;;;26.50;70.30;;;;;;6215387;23;20756;-75
2022/07/21 10:58:17;;;;;;;7.43;6.73;;;26.50;69.90;;;;;;6215094;23;20406;-75
2022/07/21 11:01:04;;;;;;;7.83;7.07;;;26.50;70.00;;;;;;6187551;23;20431;-75
2022/07/21 11:03:31;;;;;;;8.07;7.30;;;26.50;70.60;;;;;;6188181;23;20835;-75
2022/07/21 11:06:18;;;;;;;8.13;6.90;;;26.50;70.60;;;;;;6163563;23;20390;-75
2022/07/21 11:08:45;;;;;;;7.13;6.53;;;26.40;71.00;;;;;;6214662;23;20905;-75
2022/07/21 11:11:26;;;;;;;7.97;7.03;;;26.40;71.50;;;;;;6163448;23;20402;-74
2022/07/21 11:13:58;;;;;;;7.10;6.40;;;26.40;71.90;;;;;;6214648;23;20470;-75
2022/07/21 11:16:48;;;;;;;7.67;7.00;;;26.40;71.50;;;;;;6188462;23;20390;-75
2022/07/21 11:19:37;;;;;;;7.50;6.90;;;26.40;71.90;;;;;;6150257;23;20486;-75
2022/07/21 11:22:06;;;;;;;7.13;6.43;;;26.40;72.30;;;;;;6162971;23;20429;-75
2022/07/21 11:24:33;;;;;;;7.40;6.70;;;26.40;72.50;;;;;;6188226;23;20367;-75
2022/07/21 11:27:07;;;;;;;6.87;6.27;;;26.30;72.70;;;;;;6188535;23;20368;-73
2022/07/21 11:29:37;;;;;;;6.50;5.90;;;26.30;72.80;;;;;;6187940;23;20904;-73
2022/07/21 11:32:09;;;;;;;7.23;6.53;;;26.30;73.00;;;;;;6187831;23;20442;-74
2022/07/21 11:35:04;;;;;;;6.40;5.90;;;26.30;72.80;;;;;;6187646;23;20376;-70
2022/07/21 11:37:34;;;;;;;6.40;5.80;;;26.30;72.10;;;;;;6185275;23;20426;-71
2022/07/21 11:40:29;;;;;;;7.13;6.50;;;26.30;72.00;;;;;;6150778;23;20750;-74
2022/07/21 11:42:55;;;;;;;7.47;6.07;;;26.30;71.90;;;;;;6187707;23;20375;-70
2022/07/21 11:45:28;;;;;;;5.53;5.03;;;26.30;72.90;;;;;;6187982;23;20446;-71
2022/07/21 11:47:57;;;;;;;6.03;5.53;;;26.30;73.40;;;;;;6187778;23;20698;-72
2022/07/21 11:50:30;;;;;;;6.00;5.50;;;26.30;72.50;;;;;;6213926;23;20476;-74
2022/07/21 11:52:56;;;;;;;5.47;4.97;;;26.30;72.30;;;;;;6214153;23;20450;-70
2022/07/21 11:55:28;;;;;;;6.53;5.97;;;26.30;72.40;;;;;;6187622;23;20850;-70
2022/07/21 11:57:54;;;;;;;5.70;5.20;;;26.30;73.20;;;;;;6162930;23;20461;-75
2022/07/21 12:00:30;;;;;;;5.63;5.13;;;26.30;72.90;;;;;;5058203;28;20952;-72
2022/07/21 12:03:31;;;;;;;6.00;5.50;;;26.30;72.30;;;;;;4993423;28;20424;-71
2022/07/21 12:06:01;;;;;;;6.37;5.47;;;26.30;72.10;;;;;;4981017;28;20430;-71
2022/07/21 12:08:30;;;;;;;6.10;5.50;;;26.30;72.30;;;;;;5031254;28;20450;-71
2022/07/21 12:11:07;;;;;;;8.00;5.57;;;26.30;72.10;;;;;;5047570;28;20461;-72
2022/07/21 12:13:58;;;;;;;6.30;5.80;;;26.30;72.20;;;;;;5047720;28;20440;-72
2022/07/21 12:16:27;;;;;;;5.60;5.10;;;26.30;72.30;;;;;;5014866;28;20541;-72
2022/07/21 12:19:22;;;;;;;7.93;5.43;;;26.20;72.90;;;;;;5050123;28;20470;-71
2022/07/21 12:21:52;;;;;;;6.30;5.63;;;26.20;72.50;;;;;;5024098;28;20892;-71
2022/07/21 12:24:21;;;;;;;5.00;4.53;;;26.30;72.70;;;;;;5047880;28;20454;-71
2022/07/21 12:26:47;;;;;;;5.43;5.03;;;26.30;72.70;;;;;;5049033;28;20407;-71
2022/07/21 12:29:27;;;;;;;5.60;5.10;;;26.20;72.60;;;;;;5030505;28;20430;-71
2022/07/21 12:31:56;;;;;;;6.30;5.70;;;26.20;72.80;;;;;;5048534;28;20477;-72
2022/07/21 12:34:27;;;;;;;5.00;4.60;;;26.20;72.90;;;;;;5052558;28;20467;-71
2022/07/21 12:36:53;;;;;;;5.17;4.67;;;26.20;73.30;;;;;;5051998;28;20426;-70
2022/07/21 12:42:27;;;;;;;4.63;4.23;;;26.20;74.00;;;;;;5048177;28;20500;-71
2022/07/21 12:44:55;;;;;;;5.43;4.93;;;26.20;74.00;;;;;;5048282;28;20419;-72
2022/07/21 12:47:26;;;;;;;5.03;4.60;;;26.20;74.50;;;;;;5047213;28;20450;-77
2022/07/21 12:49:54;;;;;;;4.40;4.00;;;26.20;75.00;;;;;;5047263;28;20443;-72
2022/07/21 12:52:24;;;;;;;4.87;4.40;;;26.20;75.00;;;;;;5056262;28;20436;-72
2022/07/21 12:54:53;;;;;;;4.20;3.90;;;26.10;74.80;;;;;;5036628;28;20524;-72
2022/07/21 12:57:21;;;;;;;4.23;3.83;;;26.20;76.00;;;;;;5046926;28;20913;-72
2022/07/21 12:59:47;;;;;;;4.30;3.90;;;26.10;76.20;;;;;;5013579;28;20469;-74
2022/07/21 13:02:14;;;;;;;4.10;3.80;;;26.10;75.80;;;;;;5048102;28;20480;-73
2022/07/21 13:04:42;;;;;;;4.00;3.60;;;26.10;76.70;;;;;;5030551;28;20514;-74
2022/07/21 13:07:10;;;;;;;3.73;3.37;;;26.10;77.40;;;;;;5033957;28;20425;-76